sensor_id;sensor_type;location;lat;lon;timestamp;P1;durP1;ratioP1;P2;durP2;ratioP2
18576;SDS011;9418;52.694;13.294;2023-03-01T00:00:11;5.20;;;4.80;;
18576;SDS011;9418;52.694;13.294;2023-03-01T00:02:38;7.43;;;5.83;;
18576;SDS011;9418;52.694;13.294;2023-03-01T00:05:05;5.87;;;4.97;;
18576;SDS011;9418;52.694;13.294;2023-03-01T00:07:33;6.50;;;3.97;;
18576;SDS011;9418;52.694;13.294;2023-03-01T00:09:59;5.37;;;4.87;;
18576;SDS011;9418;52.694;13.294;2023-03-01T00:12:27;5.50;;;4.90;;
18576;SDS011;9418;52.694;13.294;2023-03-01T00:14:54;7.17;;;4.67;;
18576;SDS011;9418;52.694;13.294;2023-03-01T00:17:20;5.33;;;4.83;;
18576;SDS011;9418;52.694;13.294;2023-03-01T00:19:47;6.07;;;5.10;;
18576;SDS011;9418;52.694;13.294;2023-03-01T00:22:13;5.40;;;4.83;;
18576;SDS011;9418;52.694;13.294;2023-03-01T00:24:40;9.13;;;5.43;;
18576;SDS011;9418;52.694;13.294;2023-03-01T00:27:07;5.33;;;4.70;;
18576;SDS011;9418;52.694;13.294;2023-03-01T00:29:35;5.27;;;4.77;;
18576;SDS011;9418;52.694;13.294;2023-03-01T00:32:01;5.10;;;4.60;;
18576;SDS011;9418;52.694;13.294;2023-03-01T00:34:28;6.00;;;4.80;;
18576;SDS011;9418;52.694;13.294;2023-03-01T00:36:54;7.73;;;5.10;;
18576;SDS011;9418;52.694;13.294;2023-03-01T00:39:30;6.90;;;5.20;;
18576;SDS011;9418;52.694;13.294;2023-03-01T00:41:58;5.90;;;5.40;;
18576;SDS011;9418;52.694;13.294;2023-03-01T00:44:25;5.40;;;4.90;;
18576;SDS011;9418;52.694;13.294;2023-03-01T00:46:54;7.63;;;6.70;;
18576;SDS011;9418;52.694;13.294;2023-03-01T00:49:21;13.03;;;10.13;;
18576;SDS011;9418;52.694;13.294;2023-03-01T00:51:49;12.17;;;9.53;;
18576;SDS011;9418;52.694;13.294;2023-03-01T00:54:15;16.27;;;13.00;;
18576;SDS011;9418;52.694;13.294;2023-03-01T00:56:42;16.43;;;12.60;;
18576;SDS011;9418;52.694;13.294;2023-03-01T00:59:08;14.47;;;11.00;;
18576;SDS011;9418;52.694;13.294;2023-03-01T01:01:35;14.90;;;10.77;;
18576;SDS011;9418;52.694;13.294;2023-03-01T01:04:04;14.63;;;9.83;;
18576;SDS011;9418;52.694;13.294;2023-03-01T01:06:33;19.67;;;14.00;;
18576;SDS011;9418;52.694;13.294;2023-03-01T01:09:01;18.60;;;15.43;;
18576;SDS011;9418;52.694;13.294;2023-03-01T01:11:29;18.33;;;14.13;;
18576;SDS011;9418;52.694;13.294;2023-03-01T01:13:57;12.33;;;9.60;;
18576;SDS011;9418;52.694;13.294;2023-03-01T01:16:24;8.93;;;7.90;;
18576;SDS011;9418;52.694;13.294;2023-03-01T01:18:52;7.50;;;6.80;;
18576;SDS011;9418;52.694;13.294;2023-03-01T01:21:21;7.63;;;6.93;;
18576;SDS011;9418;52.694;13.294;2023-03-01T01:23:49;8.00;;;7.20;;
18576;SDS011;9418;52.694;13.294;2023-03-01T01:26:16;8.13;;;7.17;;
18576;SDS011;9418;52.694;13.294;2023-03-01T01:28:45;8.13;;;6.17;;
18576;SDS011;9418;52.694;13.294;2023-03-01T01:31:12;8.03;;;6.03;;
18576;SDS011;9418;52.694;13.294;2023-03-01T01:33:39;6.03;;;5.53;;
18576;SDS011;9418;52.694;13.294;2023-03-01T01:36:06;7.73;;;6.27;;
18576;SDS011;9418;52.694;13.294;2023-03-01T01:38:35;7.47;;;6.63;;
18576;SDS011;9418;52.694;13.294;2023-03-01T01:41:03;5.63;;;5.03;;
18576;SDS011;9418;52.694;13.294;2023-03-01T01:43:32;5.93;;;5.13;;
18576;SDS011;9418;52.694;13.294;2023-03-01T01:46:00;6.90;;;5.07;;
18576;SDS011;9418;52.694;13.294;2023-03-01T01:48:32;5.03;;;4.60;;
18576;SDS011;9418;52.694;13.294;2023-03-01T01:51:06;7.30;;;5.37;;
18576;SDS011;9418;52.694;13.294;2023-03-01T01:53:37;5.90;;;4.60;;
18576;SDS011;9418;52.694;13.294;2023-03-01T01:56:06;7.70;;;5.10;;
18576;SDS011;9418;52.694;13.294;2023-03-01T01:58:35;7.00;;;5.23;;
18576;SDS011;9418;52.694;13.294;2023-03-01T02:01:03;7.97;;;4.60;;
18576;SDS011;9418;52.694;13.294;2023-03-01T02:03:31;4.90;;;4.40;;
18576;SDS011;9418;52.694;13.294;2023-03-01T02:06:03;6.57;;;4.80;;
18576;SDS011;9418;52.694;13.294;2023-03-01T02:08:32;8.73;;;4.63;;
18576;SDS011;9418;52.694;13.294;2023-03-01T02:11:03;4.60;;;4.20;;
18576;SDS011;9418;52.694;13.294;2023-03-01T02:13:30;4.80;;;4.03;;
18576;SDS011;9418;52.694;13.294;2023-03-01T02:15:58;5.70;;;5.20;;
18576;SDS011;9418;52.694;13.294;2023-03-01T02:18:25;5.93;;;4.53;;
18576;SDS011;9418;52.694;13.294;2023-03-01T02:20:57;5.27;;;4.77;;
18576;SDS011;9418;52.694;13.294;2023-03-01T02:23:32;4.97;;;4.47;;
18576;SDS011;9418;52.694;13.294;2023-03-01T02:28:40;4.43;;;4.03;;
18576;SDS011;9418;52.694;13.294;2023-03-01T02:31:09;5.13;;;4.70;;
18576;SDS011;9418;52.694;13.294;2023-03-01T02:33:54;5.43;;;4.90;;
18576;SDS011;9418;52.694;13.294;2023-03-01T02:36:22;4.40;;;4.00;;
18576;SDS011;9418;52.694;13.294;2023-03-01T02:38:53;4.90;;;4.40;;
18576;SDS011;9418;52.694;13.294;2023-03-01T02:41:22;4.77;;;4.37;;
18576;SDS011;9418;52.694;13.294;2023-03-01T02:43:53;4.93;;;4.27;;
18576;SDS011;9418;52.694;13.294;2023-03-01T02:46:22;5.47;;;4.97;;
18576;SDS011;9418;52.694;13.294;2023-03-01T02:48:50;7.70;;;4.90;;
18576;SDS011;9418;52.694;13.294;2023-03-01T02:51:32;4.60;;;4.20;;
18576;SDS011;9418;52.694;13.294;2023-03-01T02:54:10;5.17;;;4.43;;
18576;SDS011;9418;52.694;13.294;2023-03-01T02:56:43;5.93;;;4.33;;
18576;SDS011;9418;52.694;13.294;2023-03-01T02:59:14;4.57;;;4.23;;
18576;SDS011;9418;52.694;13.294;2023-03-01T03:01:42;5.80;;;4.60;;
18576;SDS011;9418;52.694;13.294;2023-03-01T03:04:09;6.80;;;5.20;;
18576;SDS011;9418;52.694;13.294;2023-03-01T03:06:42;5.50;;;4.10;;
18576;SDS011;9418;52.694;13.294;2023-03-01T03:09:09;5.00;;;4.50;;
18576;SDS011;9418;52.694;13.294;2023-03-01T03:11:35;5.17;;;4.33;;
18576;SDS011;9418;52.694;13.294;2023-03-01T03:14:04;7.13;;;4.03;;
18576;SDS011;9418;52.694;13.294;2023-03-01T03:16:38;5.63;;;4.90;;
18576;SDS011;9418;52.694;13.294;2023-03-01T03:19:06;4.83;;;4.40;;
18576;SDS011;9418;52.694;13.294;2023-03-01T03:21:32;5.03;;;4.53;;
18576;SDS011;9418;52.694;13.294;2023-03-01T03:23:59;4.53;;;4.10;;
18576;SDS011;9418;52.694;13.294;2023-03-01T03:26:25;4.80;;;3.97;;
18576;SDS011;9418;52.694;13.294;2023-03-01T03:28:52;6.07;;;4.50;;
18576;SDS011;9418;52.694;13.294;2023-03-01T03:31:19;4.43;;;4.13;;
18576;SDS011;9418;52.694;13.294;2023-03-01T03:33:47;5.20;;;4.70;;
18576;SDS011;9418;52.694;13.294;2023-03-01T03:36:15;5.93;;;4.83;;
18576;SDS011;9418;52.694;13.294;2023-03-01T03:38:43;7.73;;;4.97;;
18576;SDS011;9418;52.694;13.294;2023-03-01T03:41:11;5.47;;;4.93;;
18576;SDS011;9418;52.694;13.294;2023-03-01T03:43:38;5.63;;;5.13;;
18576;SDS011;9418;52.694;13.294;2023-03-01T03:46:07;5.10;;;4.70;;
18576;SDS011;9418;52.694;13.294;2023-03-01T03:48:35;5.70;;;4.93;;
18576;SDS011;9418;52.694;13.294;2023-03-01T03:51:04;9.07;;;5.77;;
18576;SDS011;9418;52.694;13.294;2023-03-01T03:53:31;7.67;;;5.90;;
18576;SDS011;9418;52.694;13.294;2023-03-01T03:55:58;13.47;;;6.17;;
18576;SDS011;9418;52.694;13.294;2023-03-01T03:58:25;6.80;;;6.10;;
18576;SDS011;9418;52.694;13.294;2023-03-01T04:00:52;6.37;;;5.70;;
18576;SDS011;9418;52.694;13.294;2023-03-01T04:03:21;5.67;;;5.13;;
18576;SDS011;9418;52.694;13.294;2023-03-01T04:05:49;6.90;;;5.43;;
18576;SDS011;9418;52.694;13.294;2023-03-01T04:08:18;5.37;;;4.87;;
18576;SDS011;9418;52.694;13.294;2023-03-01T04:10:46;5.70;;;5.10;;
18576;SDS011;9418;52.694;13.294;2023-03-01T04:13:15;5.00;;;4.60;;
18576;SDS011;9418;52.694;13.294;2023-03-01T04:15:44;6.87;;;6.07;;
18576;SDS011;9418;52.694;13.294;2023-03-01T04:18:12;15.83;;;9.40;;
18576;SDS011;9418;52.694;13.294;2023-03-01T04:20:39;40.57;;;23.17;;
18576;SDS011;9418;52.694;13.294;2023-03-01T04:23:07;42.07;;;22.53;;
18576;SDS011;9418;52.694;13.294;2023-03-01T04:25:40;31.20;;;16.50;;
18576;SDS011;9418;52.694;13.294;2023-03-01T04:28:08;22.80;;;14.60;;
18576;SDS011;9418;52.694;13.294;2023-03-01T04:30:35;23.13;;;13.80;;
18576;SDS011;9418;52.694;13.294;2023-03-01T04:33:03;25.00;;;14.27;;
18576;SDS011;9418;52.694;13.294;2023-03-01T04:35:30;19.93;;;12.40;;
18576;SDS011;9418;52.694;13.294;2023-03-01T04:37:57;23.53;;;13.20;;
18576;SDS011;9418;52.694;13.294;2023-03-01T04:40:24;21.10;;;13.00;;
18576;SDS011;9418;52.694;13.294;2023-03-01T04:42:52;18.80;;;12.10;;
18576;SDS011;9418;52.694;13.294;2023-03-01T04:45:19;14.00;;;10.80;;
18576;SDS011;9418;52.694;13.294;2023-03-01T04:47:46;13.03;;;9.67;;
18576;SDS011;9418;52.694;13.294;2023-03-01T04:50:13;6.17;;;5.57;;
18576;SDS011;9418;52.694;13.294;2023-03-01T04:52:45;8.53;;;6.13;;
18576;SDS011;9418;52.694;13.294;2023-03-01T04:55:12;5.30;;;4.80;;
18576;SDS011;9418;52.694;13.294;2023-03-01T04:57:39;4.70;;;4.37;;
18576;SDS011;9418;52.694;13.294;2023-03-01T05:00:09;5.33;;;4.83;;
18576;SDS011;9418;52.694;13.294;2023-03-01T05:02:46;7.57;;;5.00;;
18576;SDS011;9418;52.694;13.294;2023-03-01T05:05:18;6.20;;;5.23;;
18576;SDS011;9418;52.694;13.294;2023-03-01T05:07:45;6.87;;;6.20;;
18576;SDS011;9418;52.694;13.294;2023-03-01T05:10:12;6.70;;;6.10;;
18576;SDS011;9418;52.694;13.294;2023-03-01T05:12:39;6.17;;;5.57;;
18576;SDS011;9418;52.694;13.294;2023-03-01T05:15:06;6.30;;;5.70;;
18576;SDS011;9418;52.694;13.294;2023-03-01T05:17:34;10.20;;;6.40;;
18576;SDS011;9418;52.694;13.294;2023-03-01T05:20:01;6.17;;;5.40;;
18576;SDS011;9418;52.694;13.294;2023-03-01T05:22:32;6.53;;;5.90;;
18576;SDS011;9418;52.694;13.294;2023-03-01T05:24:58;7.53;;;5.37;;
18576;SDS011;9418;52.694;13.294;2023-03-01T05:27:25;5.73;;;5.23;;
18576;SDS011;9418;52.694;13.294;2023-03-01T05:29:51;7.43;;;6.00;;
18576;SDS011;9418;52.694;13.294;2023-03-01T05:32:18;7.50;;;6.20;;
18576;SDS011;9418;52.694;13.294;2023-03-01T05:34:46;7.53;;;6.23;;
18576;SDS011;9418;52.694;13.294;2023-03-01T05:37:12;8.70;;;6.50;;
18576;SDS011;9418;52.694;13.294;2023-03-01T05:39:39;7.53;;;6.70;;
18576;SDS011;9418;52.694;13.294;2023-03-01T05:42:09;8.70;;;6.97;;
18576;SDS011;9418;52.694;13.294;2023-03-01T05:44:37;8.00;;;5.93;;
18576;SDS011;9418;52.694;13.294;2023-03-01T05:47:04;6.07;;;5.57;;
18576;SDS011;9418;52.694;13.294;2023-03-01T05:49:31;6.67;;;6.00;;
18576;SDS011;9418;52.694;13.294;2023-03-01T05:51:59;9.13;;;6.97;;
18576;SDS011;9418;52.694;13.294;2023-03-01T05:54:25;6.07;;;5.57;;
18576;SDS011;9418;52.694;13.294;2023-03-01T05:56:52;6.70;;;5.83;;
18576;SDS011;9418;52.694;13.294;2023-03-01T05:59:18;6.73;;;6.10;;
18576;SDS011;9418;52.694;13.294;2023-03-01T06:01:45;6.37;;;5.70;;
18576;SDS011;9418;52.694;13.294;2023-03-01T06:04:12;6.27;;;5.67;;
18576;SDS011;9418;52.694;13.294;2023-03-01T06:06:38;6.87;;;5.60;;
18576;SDS011;9418;52.694;13.294;2023-03-01T06:09:06;4.83;;;4.40;;
18576;SDS011;9418;52.694;13.294;2023-03-01T06:11:34;7.77;;;7.07;;
18576;SDS011;9418;52.694;13.294;2023-03-01T06:14:02;6.57;;;5.90;;
18576;SDS011;9418;52.694;13.294;2023-03-01T06:16:29;10.80;;;8.10;;
18576;SDS011;9418;52.694;13.294;2023-03-01T06:18:56;11.30;;;7.50;;
18576;SDS011;9418;52.694;13.294;2023-03-01T06:21:22;9.80;;;7.80;;
18576;SDS011;9418;52.694;13.294;2023-03-01T06:23:49;9.83;;;7.30;;
18576;SDS011;9418;52.694;13.294;2023-03-01T06:26:18;15.90;;;11.90;;
18576;SDS011;9418;52.694;13.294;2023-03-01T06:28:44;29.27;;;19.03;;
18576;SDS011;9418;52.694;13.294;2023-03-01T06:31:11;31.52;;;22.05;;
18576;SDS011;9418;52.694;13.294;2023-03-01T06:33:38;25.00;;;18.60;;
18576;SDS011;9418;52.694;13.294;2023-03-01T06:36:05;19.80;;;15.30;;
18576;SDS011;9418;52.694;13.294;2023-03-01T06:38:32;19.60;;;15.80;;
18576;SDS011;9418;52.694;13.294;2023-03-01T06:40:59;20.57;;;14.40;;
18576;SDS011;9418;52.694;13.294;2023-03-01T06:43:27;17.67;;;13.63;;
18576;SDS011;9418;52.694;13.294;2023-03-01T06:45:54;20.13;;;13.70;;
18576;SDS011;9418;52.694;13.294;2023-03-01T06:48:20;17.40;;;12.47;;
18576;SDS011;9418;52.694;13.294;2023-03-01T06:50:47;17.07;;;12.50;;
18576;SDS011;9418;52.694;13.294;2023-03-01T06:53:14;13.73;;;11.17;;
18576;SDS011;9418;52.694;13.294;2023-03-01T06:55:40;17.67;;;10.80;;
18576;SDS011;9418;52.694;13.294;2023-03-01T06:58:08;11.43;;;9.30;;
18576;SDS011;9418;52.694;13.294;2023-03-01T07:00:37;12.17;;;9.03;;
18576;SDS011;9418;52.694;13.294;2023-03-01T07:03:05;10.17;;;9.00;;
18576;SDS011;9418;52.694;13.294;2023-03-01T07:05:32;10.97;;;9.13;;
18576;SDS011;9418;52.694;13.294;2023-03-01T07:07:59;10.20;;;8.97;;
18576;SDS011;9418;52.694;13.294;2023-03-01T07:10:26;12.00;;;8.33;;
18576;SDS011;9418;52.694;13.294;2023-03-01T07:12:54;10.47;;;7.83;;
18576;SDS011;9418;52.694;13.294;2023-03-01T07:15:21;9.57;;;8.57;;
18576;SDS011;9418;52.694;13.294;2023-03-01T07:17:49;11.33;;;8.47;;
18576;SDS011;9418;52.694;13.294;2023-03-01T07:20:16;18.83;;;8.50;;
18576;SDS011;9418;52.694;13.294;2023-03-01T07:22:43;12.70;;;9.00;;
18576;SDS011;9418;52.694;13.294;2023-03-01T07:25:09;10.77;;;7.90;;
18576;SDS011;9418;52.694;13.294;2023-03-01T07:27:36;8.77;;;6.90;;
18576;SDS011;9418;52.694;13.294;2023-03-01T07:30:03;9.83;;;8.77;;
18576;SDS011;9418;52.694;13.294;2023-03-01T07:32:31;10.87;;;9.73;;
18576;SDS011;9418;52.694;13.294;2023-03-01T07:34:58;14.50;;;11.47;;
18576;SDS011;9418;52.694;13.294;2023-03-01T07:37:25;15.80;;;13.27;;
18576;SDS011;9418;52.694;13.294;2023-03-01T07:39:52;33.33;;;16.30;;
18576;SDS011;9418;52.694;13.294;2023-03-01T07:42:18;36.30;;;24.07;;
18576;SDS011;9418;52.694;13.294;2023-03-01T07:44:45;41.10;;;26.50;;
18576;SDS011;9418;52.694;13.294;2023-03-01T07:47:12;37.43;;;24.67;;
18576;SDS011;9418;52.694;13.294;2023-03-01T07:49:39;46.67;;;29.77;;
18576;SDS011;9418;52.694;13.294;2023-03-01T07:52:07;65.23;;;40.53;;
18576;SDS011;9418;52.694;13.294;2023-03-01T07:54:35;41.30;;;26.37;;
18576;SDS011;9418;52.694;13.294;2023-03-01T07:57:02;30.77;;;19.57;;
18576;SDS011;9418;52.694;13.294;2023-03-01T07:59:29;26.03;;;18.17;;
18576;SDS011;9418;52.694;13.294;2023-03-01T08:01:57;21.93;;;17.47;;
18576;SDS011;9418;52.694;13.294;2023-03-01T08:04:24;22.17;;;16.27;;
18576;SDS011;9418;52.694;13.294;2023-03-01T08:06:51;19.60;;;15.73;;
18576;SDS011;9418;52.694;13.294;2023-03-01T08:09:19;22.40;;;17.43;;
18576;SDS011;9418;52.694;13.294;2023-03-01T08:11:46;20.57;;;15.27;;
18576;SDS011;9418;52.694;13.294;2023-03-01T08:14:12;16.30;;;12.63;;
18576;SDS011;9418;52.694;13.294;2023-03-01T08:16:39;18.93;;;13.50;;
18576;SDS011;9418;52.694;13.294;2023-03-01T08:19:06;23.50;;;12.13;;
18576;SDS011;9418;52.694;13.294;2023-03-01T08:21:34;18.40;;;12.80;;
18576;SDS011;9418;52.694;13.294;2023-03-01T08:24:00;14.60;;;11.47;;
18576;SDS011;9418;52.694;13.294;2023-03-01T08:26:29;19.60;;;11.10;;
18576;SDS011;9418;52.694;13.294;2023-03-01T08:28:55;16.87;;;10.17;;
18576;SDS011;9418;52.694;13.294;2023-03-01T08:31:23;18.17;;;10.33;;
18576;SDS011;9418;52.694;13.294;2023-03-01T08:33:52;14.53;;;9.60;;
18576;SDS011;9418;52.694;13.294;2023-03-01T08:36:21;17.30;;;10.80;;
18576;SDS011;9418;52.694;13.294;2023-03-01T08:38:48;17.87;;;11.40;;
18576;SDS011;9418;52.694;13.294;2023-03-01T08:41:15;15.63;;;10.37;;
18576;SDS011;9418;52.694;13.294;2023-03-01T08:43:43;18.50;;;10.90;;
18576;SDS011;9418;52.694;13.294;2023-03-01T08:46:09;18.03;;;9.50;;
18576;SDS011;9418;52.694;13.294;2023-03-01T08:48:37;15.13;;;8.17;;
18576;SDS011;9418;52.694;13.294;2023-03-01T08:51:07;8.60;;;7.70;;
18576;SDS011;9418;52.694;13.294;2023-03-01T08:53:34;17.63;;;8.30;;
18576;SDS011;9418;52.694;13.294;2023-03-01T08:56:01;10.10;;;6.70;;
18576;SDS011;9418;52.694;13.294;2023-03-01T08:58:28;14.10;;;7.00;;
18576;SDS011;9418;52.694;13.294;2023-03-01T09:00:56;9.10;;;6.80;;
18576;SDS011;9418;52.694;13.294;2023-03-01T09:03:23;9.97;;;6.77;;
18576;SDS011;9418;52.694;13.294;2023-03-01T09:05:50;9.50;;;5.83;;
18576;SDS011;9418;52.694;13.294;2023-03-01T09:08:17;10.80;;;8.30;;
18576;SDS011;9418;52.694;13.294;2023-03-01T09:10:44;8.70;;;6.50;;
18576;SDS011;9418;52.694;13.294;2023-03-01T09:13:11;14.97;;;6.37;;
18576;SDS011;9418;52.694;13.294;2023-03-01T09:15:37;11.30;;;6.90;;
18576;SDS011;9418;52.694;13.294;2023-03-01T09:18:05;12.67;;;6.77;;
18576;SDS011;9418;52.694;13.294;2023-03-01T09:20:32;6.43;;;4.67;;
18576;SDS011;9418;52.694;13.294;2023-03-01T09:22:59;8.43;;;5.27;;
18576;SDS011;9418;52.694;13.294;2023-03-01T09:25:25;7.50;;;4.60;;
18576;SDS011;9418;52.694;13.294;2023-03-01T09:27:53;6.43;;;5.17;;
18576;SDS011;9418;52.694;13.294;2023-03-01T09:30:22;16.90;;;5.00;;
18576;SDS011;9418;52.694;13.294;2023-03-01T09:32:49;17.43;;;7.00;;
18576;SDS011;9418;52.694;13.294;2023-03-01T09:35:17;7.07;;;4.40;;
18576;SDS011;9418;52.694;13.294;2023-03-01T09:37:44;4.13;;;3.80;;
18576;SDS011;9418;52.694;13.294;2023-03-01T09:40:12;5.20;;;4.70;;
18576;SDS011;9418;52.694;13.294;2023-03-01T09:42:46;5.03;;;4.27;;
18576;SDS011;9418;52.694;13.294;2023-03-01T09:45:25;7.97;;;5.00;;
18576;SDS011;9418;52.694;13.294;2023-03-01T09:47:55;8.73;;;4.33;;
18576;SDS011;9418;52.694;13.294;2023-03-01T09:50:24;5.90;;;4.23;;
18576;SDS011;9418;52.694;13.294;2023-03-01T09:52:54;6.17;;;4.60;;
18576;SDS011;9418;52.694;13.294;2023-03-01T09:55:28;10.40;;;4.40;;
18576;SDS011;9418;52.694;13.294;2023-03-01T09:58:00;5.33;;;4.07;;
18576;SDS011;9418;52.694;13.294;2023-03-01T10:00:34;6.67;;;5.30;;
18576;SDS011;9418;52.694;13.294;2023-03-01T10:03:08;5.10;;;4.27;;
18576;SDS011;9418;52.694;13.294;2023-03-01T10:05:46;6.50;;;4.83;;
18576;SDS011;9418;52.694;13.294;2023-03-01T10:08:34;5.50;;;4.70;;
18576;SDS011;9418;52.694;13.294;2023-03-01T10:11:15;5.90;;;3.70;;
18576;SDS011;9418;52.694;13.294;2023-03-01T10:13:46;4.37;;;3.93;;
18576;SDS011;9418;52.694;13.294;2023-03-01T10:16:19;4.47;;;4.00;;
18576;SDS011;9418;52.694;13.294;2023-03-01T10:18:51;6.87;;;5.50;;
18576;SDS011;9418;52.694;13.294;2023-03-01T10:21:22;13.30;;;10.10;;
18576;SDS011;9418;52.694;13.294;2023-03-01T10:23:49;10.40;;;7.23;;
18576;SDS011;9418;52.694;13.294;2023-03-01T10:26:30;3.83;;;3.53;;
18576;SDS011;9418;52.694;13.294;2023-03-01T10:29:14;5.20;;;3.13;;
18576;SDS011;9418;52.694;13.294;2023-03-01T10:31:42;4.67;;;3.83;;
18576;SDS011;9418;52.694;13.294;2023-03-01T10:34:12;3.00;;;2.77;;
18576;SDS011;9418;52.694;13.294;2023-03-01T10:36:42;3.67;;;3.10;;
18576;SDS011;9418;52.694;13.294;2023-03-01T10:39:17;3.50;;;3.30;;
18576;SDS011;9418;52.694;13.294;2023-03-01T10:41:55;3.77;;;3.47;;
18576;SDS011;9418;52.694;13.294;2023-03-01T10:44:42;5.20;;;3.43;;
18576;SDS011;9418;52.694;13.294;2023-03-01T10:47:15;5.97;;;4.27;;
18576;SDS011;9418;52.694;13.294;2023-03-01T10:49:52;4.60;;;3.63;;
18576;SDS011;9418;52.694;13.294;2023-03-01T10:52:29;3.83;;;3.43;;
18576;SDS011;9418;52.694;13.294;2023-03-01T10:54:58;3.70;;;3.40;;
18576;SDS011;9418;52.694;13.294;2023-03-01T10:57:31;4.43;;;3.80;;
18576;SDS011;9418;52.694;13.294;2023-03-01T11:00:09;4.37;;;3.30;;
18576;SDS011;9418;52.694;13.294;2023-03-01T11:02:46;4.10;;;2.87;;
18576;SDS011;9418;52.694;13.294;2023-03-01T11:05:19;3.93;;;3.53;;
18576;SDS011;9418;52.694;13.294;2023-03-01T11:07:50;3.70;;;3.33;;
18576;SDS011;9418;52.694;13.294;2023-03-01T11:10:19;3.60;;;3.17;;
18576;SDS011;9418;52.694;13.294;2023-03-01T11:12:48;3.10;;;2.90;;
18576;SDS011;9418;52.694;13.294;2023-03-01T11:15:23;15.33;;;2.80;;
18576;SDS011;9418;52.694;13.294;2023-03-01T11:17:52;3.47;;;3.20;;
18576;SDS011;9418;52.694;13.294;2023-03-01T11:20:23;2.80;;;2.60;;
18576;SDS011;9418;52.694;13.294;2023-03-01T11:22:54;3.23;;;2.93;;
18576;SDS011;9418;52.694;13.294;2023-03-01T11:25:24;4.17;;;3.77;;
18576;SDS011;9418;52.694;13.294;2023-03-01T11:27:53;6.10;;;5.10;;
18576;SDS011;9418;52.694;13.294;2023-03-01T11:30:21;6.00;;;3.30;;
18576;SDS011;9418;52.694;13.294;2023-03-01T11:32:54;5.80;;;3.40;;
18576;SDS011;9418;52.694;13.294;2023-03-01T11:35:28;4.33;;;2.90;;
18576;SDS011;9418;52.694;13.294;2023-03-01T11:38:02;5.20;;;4.13;;
18576;SDS011;9418;52.694;13.294;2023-03-01T11:40:37;4.40;;;3.03;;
18576;SDS011;9418;52.694;13.294;2023-03-01T11:43:10;3.20;;;2.83;;
18576;SDS011;9418;52.694;13.294;2023-03-01T11:45:47;3.50;;;3.20;;
18576;SDS011;9418;52.694;13.294;2023-03-01T11:48:28;5.67;;;2.87;;
18576;SDS011;9418;52.694;13.294;2023-03-01T11:51:12;5.83;;;2.60;;
18576;SDS011;9418;52.694;13.294;2023-03-01T11:53:53;3.30;;;3.00;;
18576;SDS011;9418;52.694;13.294;2023-03-01T11:56:27;4.07;;;3.50;;
18576;SDS011;9418;52.694;13.294;2023-03-01T11:59:02;2.63;;;2.43;;
18576;SDS011;9418;52.694;13.294;2023-03-01T12:02:07;4.97;;;3.30;;
18576;SDS011;9418;52.694;13.294;2023-03-01T12:08:16;4.70;;;3.80;;
18576;SDS011;9418;52.694;13.294;2023-03-01T12:10:51;3.70;;;3.30;;
18576;SDS011;9418;52.694;13.294;2023-03-01T12:13:36;3.07;;;2.87;;
18576;SDS011;9418;52.694;13.294;2023-03-01T12:16:19;7.50;;;3.27;;
18576;SDS011;9418;52.694;13.294;2023-03-01T12:19:01;3.80;;;3.33;;
18576;SDS011;9418;52.694;13.294;2023-03-01T12:21:44;4.60;;;3.10;;
18576;SDS011;9418;52.694;13.294;2023-03-01T12:24:30;3.63;;;3.10;;
18576;SDS011;9418;52.694;13.294;2023-03-01T12:27:29;3.10;;;2.80;;
18576;SDS011;9418;52.694;13.294;2023-03-01T12:30:10;4.03;;;3.30;;
18576;SDS011;9418;52.694;13.294;2023-03-01T12:32:47;5.63;;;2.90;;
18576;SDS011;9418;52.694;13.294;2023-03-01T12:38:23;6.90;;;3.20;;
18576;SDS011;9418;52.694;13.294;2023-03-01T12:41:16;2.60;;;2.40;;
18576;SDS011;9418;52.694;13.294;2023-03-01T12:43:57;2.87;;;2.40;;
18576;SDS011;9418;52.694;13.294;2023-03-01T12:46:33;3.00;;;2.77;;
18576;SDS011;9418;52.694;13.294;2023-03-01T12:49:08;3.07;;;2.43;;
18576;SDS011;9418;52.694;13.294;2023-03-01T12:51:38;2.47;;;2.27;;
18576;SDS011;9418;52.694;13.294;2023-03-01T12:54:11;3.17;;;2.30;;
18576;SDS011;9418;52.694;13.294;2023-03-01T12:56:42;3.77;;;2.50;;
18576;SDS011;9418;52.694;13.294;2023-03-01T12:59:19;1.90;;;1.80;;
18576;SDS011;9418;52.694;13.294;2023-03-01T13:01:49;3.60;;;2.33;;
18576;SDS011;9418;52.694;13.294;2023-03-01T13:04:22;3.30;;;1.70;;
18576;SDS011;9418;52.694;13.294;2023-03-01T13:06:58;2.73;;;2.40;;
18576;SDS011;9418;52.694;13.294;2023-03-01T13:09:38;2.10;;;2.00;;
18576;SDS011;9418;52.694;13.294;2023-03-01T13:15:27;2.83;;;2.20;;
18576;SDS011;9418;52.694;13.294;2023-03-01T13:17:56;4.20;;;1.83;;
18576;SDS011;9418;52.694;13.294;2023-03-01T13:20:25;3.00;;;2.20;;
18576;SDS011;9418;52.694;13.294;2023-03-01T13:23:06;3.40;;;2.43;;
18576;SDS011;9418;52.694;13.294;2023-03-01T13:28:49;2.20;;;2.07;;
18576;SDS011;9418;52.694;13.294;2023-03-01T13:34:41;2.93;;;2.40;;
18576;SDS011;9418;52.694;13.294;2023-03-01T13:37:18;2.07;;;1.63;;
18576;SDS011;9418;52.694;13.294;2023-03-01T13:39:59;2.20;;;2.10;;
18576;SDS011;9418;52.694;13.294;2023-03-01T13:42:34;2.67;;;2.17;;
18576;SDS011;9418;52.694;13.294;2023-03-01T13:45:14;2.10;;;2.00;;
18576;SDS011;9418;52.694;13.294;2023-03-01T13:47:44;2.03;;;1.57;;
18576;SDS011;9418;52.694;13.294;2023-03-01T13:50:18;2.00;;;1.80;;
18576;SDS011;9418;52.694;13.294;2023-03-01T13:52:48;2.63;;;1.80;;
18576;SDS011;9418;52.694;13.294;2023-03-01T13:55:20;3.23;;;1.87;;
18576;SDS011;9418;52.694;13.294;2023-03-01T13:57:50;2.60;;;1.70;;
18576;SDS011;9418;52.694;13.294;2023-03-01T14:00:30;2.43;;;1.87;;
18576;SDS011;9418;52.694;13.294;2023-03-01T14:03:08;3.47;;;2.17;;
18576;SDS011;9418;52.694;13.294;2023-03-01T14:05:40;4.07;;;2.27;;
18576;SDS011;9418;52.694;13.294;2023-03-01T14:08:21;1.67;;;1.57;;
18576;SDS011;9418;52.694;13.294;2023-03-01T14:11:01;3.00;;;2.80;;
18576;SDS011;9418;52.694;13.294;2023-03-01T14:14:23;5.13;;;2.50;;
18576;SDS011;9418;52.694;13.294;2023-03-01T14:17:00;3.47;;;2.20;;
18576;SDS011;9418;52.694;13.294;2023-03-01T14:19:40;2.50;;;2.30;;
18576;SDS011;9418;52.694;13.294;2023-03-01T14:22:14;2.13;;;1.67;;
18576;SDS011;9418;52.694;13.294;2023-03-01T14:24:46;2.27;;;2.07;;
18576;SDS011;9418;52.694;13.294;2023-03-01T14:27:15;2.30;;;1.80;;
18576;SDS011;9418;52.694;13.294;2023-03-01T14:29:42;2.10;;;2.00;;
18576;SDS011;9418;52.694;13.294;2023-03-01T14:32:10;2.07;;;1.70;;
18576;SDS011;9418;52.694;13.294;2023-03-01T14:34:42;2.57;;;2.37;;
18576;SDS011;9418;52.694;13.294;2023-03-01T14:37:10;2.80;;;2.33;;
18576;SDS011;9418;52.694;13.294;2023-03-01T14:39:43;2.33;;;2.13;;
18576;SDS011;9418;52.694;13.294;2023-03-01T14:42:10;2.30;;;2.07;;
18576;SDS011;9418;52.694;13.294;2023-03-01T14:44:40;1.90;;;1.80;;
18576;SDS011;9418;52.694;13.294;2023-03-01T14:47:10;5.70;;;3.20;;
18576;SDS011;9418;52.694;13.294;2023-03-01T14:49:39;2.97;;;2.77;;
18576;SDS011;9418;52.694;13.294;2023-03-01T14:52:07;6.23;;;2.60;;
18576;SDS011;9418;52.694;13.294;2023-03-01T14:54:48;2.33;;;2.13;;
18576;SDS011;9418;52.694;13.294;2023-03-01T14:57:18;2.20;;;2.00;;
18576;SDS011;9418;52.694;13.294;2023-03-01T14:59:47;2.83;;;2.23;;
18576;SDS011;9418;52.694;13.294;2023-03-01T15:02:17;2.10;;;1.97;;
18576;SDS011;9418;52.694;13.294;2023-03-01T15:04:46;5.30;;;2.97;;
18576;SDS011;9418;52.694;13.294;2023-03-01T15:07:15;6.30;;;2.80;;
18576;SDS011;9418;52.694;13.294;2023-03-01T15:09:43;8.70;;;2.37;;
18576;SDS011;9418;52.694;13.294;2023-03-01T15:17:48;2.27;;;2.17;;
18576;SDS011;9418;52.694;13.294;2023-03-01T15:20:20;2.53;;;2.33;;
18576;SDS011;9418;52.694;13.294;2023-03-01T15:22:50;2.87;;;2.37;;